createdAt,value
2018-07-29T00:02:25.432Z,20.80
2018-07-29T00:04:53.830Z,20.60
2018-07-29T00:07:22.478Z,20.60
2018-07-29T00:09:50.863Z,20.40
2018-07-29T00:12:19.274Z,20.30
2018-07-29T00:17:17.046Z,20.30
2018-07-29T00:19:45.540Z,20.30
2018-07-29T00:22:14.206Z,20.30
2018-07-29T00:24:42.605Z,20.20
2018-07-29T00:27:11.021Z,20.00
2018-07-29T00:29:39.678Z,19.90
2018-07-29T00:32:08.098Z,19.80
2018-07-29T00:34:36.476Z,19.70
2018-07-29T00:37:05.374Z,19.70
2018-07-29T00:39:33.840Z,19.60
2018-07-29T00:42:02.261Z,19.50
2018-07-29T00:44:30.829Z,19.40
2018-07-29T00:46:59.336Z,19.30
2018-07-29T00:49:27.793Z,19.30
2018-07-29T00:51:56.390Z,19.30
2018-07-29T00:54:24.794Z,19.20
2018-07-29T00:56:53.237Z,19.20
2018-07-29T00:59:21.824Z,19.20
2018-07-29T01:01:50.279Z,19.10
2018-07-29T01:04:18.702Z,19.10
2018-07-29T01:06:48.197Z,19.00
2018-07-29T01:09:16.561Z,19.00
2018-07-29T01:14:13.375Z,18.80
2018-07-29T01:16:41.762Z,18.80
2018-07-29T01:19:10.189Z,18.80
2018-07-29T01:21:38.787Z,18.70
2018-07-29T01:24:07.181Z,18.70
2018-07-29T01:26:35.888Z,18.70
2018-07-29T01:31:32.861Z,18.60
2018-07-29T01:34:01.281Z,18.60
2018-07-29T01:36:29.837Z,18.50
2018-07-29T01:38:58.254Z,18.50
2018-07-29T01:41:26.658Z,18.50
2018-07-29T01:46:23.448Z,19.00
2018-07-29T01:48:52.616Z,18.40
2018-07-29T01:51:21.288Z,18.40
2018-07-29T01:53:49.669Z,18.40
2018-07-29T01:56:18.092Z,18.30
2018-07-29T01:58:46.773Z,18.30
2018-07-29T02:01:15.177Z,18.20
2018-07-29T02:03:43.574Z,18.20
2018-07-29T02:06:12.332Z,18.20
2018-07-29T02:08:41.269Z,18.20
2018-07-29T02:11:09.713Z,18.10
2018-07-29T02:13:38.337Z,18.10
2018-07-29T02:16:06.765Z,18.10
2018-07-29T02:18:35.157Z,18.10
2018-07-29T02:21:03.817Z,18.00
2018-07-29T02:23:32.209Z,18.00
2018-07-29T02:26:00.613Z,18.00
2018-07-29T02:28:29.195Z,17.90
2018-07-29T02:30:57.602Z,18.20
2018-07-29T02:33:25.985Z,17.80
2018-07-29T02:35:54.674Z,17.80
2018-07-29T02:38:23.070Z,17.80
2018-07-29T02:40:51.465Z,17.70
2018-07-29T02:43:20.157Z,17.80
2018-07-29T02:45:48.581Z,17.70
2018-07-29T02:48:16.969Z,17.70
2018-07-29T02:50:45.637Z,17.60
2018-07-29T02:53:14.108Z,17.70
2018-07-29T02:55:42.477Z,17.70
2018-07-29T03:00:39.129Z,17.60
2018-07-29T03:03:07.540Z,17.60
2018-07-29T03:05:36.114Z,17.50
2018-07-29T03:08:04.744Z,17.50
2018-07-29T03:10:33.160Z,17.50
2018-07-29T03:13:01.847Z,17.50
2018-07-29T03:15:30.230Z,17.50
2018-07-29T03:17:58.664Z,17.50
2018-07-29T03:20:27.344Z,17.40
2018-07-29T03:22:55.897Z,17.40
2018-07-29T03:27:53.130Z,17.40
2018-07-29T03:30:21.576Z,17.30
2018-07-29T03:37:46.381Z,17.30
2018-07-29T03:40:14.862Z,17.30
2018-07-29T03:42:43.434Z,17.30
2018-07-29T03:45:11.813Z,17.30
2018-07-29T03:47:40.169Z,17.20
2018-07-29T03:50:08.753Z,17.20
2018-07-29T03:52:37.129Z,17.20
2018-07-29T03:55:05.500Z,17.20
2018-07-29T03:57:34.229Z,17.30
2018-07-29T04:00:02.675Z,17.40
2018-07-29T04:04:59.637Z,17.40
2018-07-29T04:07:28.069Z,17.40
2018-07-29T04:09:56.576Z,17.50
2018-07-29T04:12:25.294Z,17.60
2018-07-29T04:14:54.512Z,17.80
2018-07-29T04:17:23.358Z,18.30
2018-07-29T04:19:51.996Z,18.70
2018-07-29T04:22:20.501Z,19.30
2018-07-29T04:24:49.118Z,19.80
2018-07-29T04:27:18.998Z,20.30
2018-07-29T04:29:49.041Z,20.50
2018-07-29T04:32:17.806Z,20.70
2018-07-29T04:34:46.627Z,20.80
2018-07-29T04:37:15.202Z,21.10
2018-07-29T04:39:43.681Z,21.30
2018-07-29T04:44:40.404Z,21.70
2018-07-29T04:47:08.790Z,21.70
2018-07-29T04:49:37.549Z,21.80
2018-07-29T04:52:05.977Z,22.10
2018-07-29T04:54:34.336Z,22.30
2018-07-29T04:57:02.986Z,22.50
2018-07-29T04:59:31.398Z,22.90
2018-07-29T05:01:59.773Z,22.70
2018-07-29T05:04:28.361Z,22.70
2018-07-29T05:06:56.796Z,22.90
2018-07-29T05:09:25.233Z,23.10
2018-07-29T05:11:53.753Z,23.60
2018-07-29T05:14:22.127Z,23.50
2018-07-29T05:16:50.569Z,23.60
2018-07-29T05:19:19.218Z,23.80
2018-07-29T05:21:47.852Z,23.80
2018-07-29T05:24:16.246Z,23.80
2018-07-29T05:26:44.851Z,23.60
2018-07-29T05:29:13.286Z,24.10
2018-07-29T05:31:41.652Z,24.20
2018-07-29T05:34:10.218Z,24.00
2018-07-29T05:36:38.605Z,24.40
2018-07-29T05:39:09.420Z,24.50
2018-07-29T05:41:37.890Z,24.40
2018-07-29T05:44:07.032Z,24.40
2018-07-29T05:46:36.362Z,24.20
2018-07-29T05:49:05.601Z,23.90
2018-07-29T05:51:34.723Z,23.60
2018-07-29T05:54:04.255Z,23.70
2018-07-29T05:56:33.475Z,24.10
2018-07-29T05:59:03.814Z,24.30
2018-07-29T06:01:32.722Z,24.30
2018-07-29T06:04:01.663Z,24.60
2018-07-29T06:06:30.582Z,25.00
2018-07-29T06:08:59.285Z,25.20
2018-07-29T06:11:28.225Z,25.00
2018-07-29T06:13:57.305Z,24.90
2018-07-29T06:16:26.118Z,24.80
2018-07-29T06:18:54.998Z,25.10
2018-07-29T06:21:25.206Z,25.60
2018-07-29T06:23:54.818Z,25.80
2018-07-29T06:26:24.134Z,26.30
2018-07-29T06:28:53.109Z,26.30
2018-07-29T06:31:22.116Z,26.20
2018-07-29T06:33:50.629Z,26.30
2018-07-29T06:36:19.307Z,26.80
2018-07-29T06:38:47.730Z,27.90
2018-07-29T06:41:16.149Z,27.70
2018-07-29T06:43:44.769Z,27.50
2018-07-29T06:46:13.205Z,27.30
2018-07-29T06:48:41.619Z,27.00
2018-07-29T06:51:10.239Z,27.20
2018-07-29T06:53:38.761Z,28.00
2018-07-29T06:56:07.280Z,28.00
2018-07-29T06:58:36.044Z,28.00
2018-07-29T07:01:04.437Z,28.50
2018-07-29T07:03:32.833Z,28.70
2018-07-29T07:06:01.410Z,28.80
2018-07-29T07:08:29.815Z,28.80
2018-07-29T07:10:58.185Z,28.50
2018-07-29T07:13:26.783Z,28.10
2018-07-29T07:15:55.355Z,27.60
2018-07-29T07:18:24.476Z,26.80
2018-07-29T07:20:53.104Z,26.60
2018-07-29T07:23:21.460Z,27.00
2018-07-29T07:25:49.850Z,27.00
2018-07-29T07:28:18.477Z,26.30
2018-07-29T07:30:46.886Z,26.30
2018-07-29T07:33:15.309Z,26.40
2018-07-29T07:35:44.390Z,26.60
2018-07-29T07:38:12.804Z,26.40
2018-07-29T07:40:41.456Z,26.30
2018-07-29T07:43:10.143Z,26.40
2018-07-29T07:45:38.508Z,26.40
2018-07-29T07:48:06.873Z,26.40
2018-07-29T07:50:35.426Z,26.40
2018-07-29T07:53:03.895Z,26.50
2018-07-29T07:55:32.265Z,26.60
2018-07-29T07:58:00.816Z,27.00
2018-07-29T08:00:29.205Z,26.70
2018-07-29T08:02:57.629Z,26.40
2018-07-29T08:05:26.157Z,26.30
2018-07-29T08:07:54.692Z,26.50
2018-07-29T08:10:23.068Z,26.70
2018-07-29T08:12:51.729Z,26.80
2018-07-29T08:15:20.107Z,26.70
2018-07-29T08:17:48.493Z,26.30
2018-07-29T08:20:17.140Z,26.00
2018-07-29T08:22:45.514Z,25.80
2018-07-29T08:25:13.904Z,26.10
2018-07-29T08:27:42.623Z,26.10
2018-07-29T08:30:11.001Z,26.20
2018-07-29T08:32:39.389Z,26.30
2018-07-29T08:35:08.112Z,26.20
2018-07-29T08:37:36.518Z,26.40
2018-07-29T08:40:04.953Z,26.50
2018-07-29T08:42:33.583Z,26.50
2018-07-29T08:45:01.998Z,26.70
2018-07-29T08:47:30.425Z,26.70
2018-07-29T08:49:59.074Z,26.60
2018-07-29T08:52:27.410Z,26.80
2018-07-29T08:57:24.148Z,27.30
2018-07-29T08:59:52.500Z,27.30
2018-07-29T09:02:21.085Z,27.40
2018-07-29T09:04:49.732Z,27.50
2018-07-29T09:07:18.110Z,27.40
2018-07-29T09:09:46.493Z,27.10
2018-07-29T09:12:15.105Z,27.00
2018-07-29T09:14:43.572Z,27.00
2018-07-29T09:17:11.944Z,26.80
2018-07-29T09:19:40.490Z,27.00
2018-07-29T09:22:08.864Z,27.20
2018-07-29T09:24:37.238Z,27.10
2018-07-29T09:27:05.829Z,27.10
2018-07-29T09:29:34.189Z,26.90
2018-07-29T09:32:02.594Z,26.80
2018-07-29T09:34:31.321Z,26.50
2018-07-29T09:36:59.808Z,26.50
2018-07-29T09:39:28.226Z,26.50
2018-07-29T09:41:56.821Z,26.50
2018-07-29T09:44:25.315Z,26.80
2018-07-29T09:46:53.691Z,27.10
2018-07-29T09:49:22.256Z,27.40
2018-07-29T09:51:50.675Z,27.50
2018-07-29T09:54:19.159Z,27.60
2018-07-29T09:56:47.813Z,27.70
2018-07-29T09:59:16.249Z,27.70
2018-07-29T10:01:44.753Z,27.60
2018-07-29T10:04:13.341Z,27.50
2018-07-29T10:06:42.031Z,27.60
2018-07-29T10:09:10.953Z,27.60
2018-07-29T10:11:39.772Z,27.50
2018-07-29T10:14:08.166Z,27.60
2018-07-29T10:16:36.598Z,27.50
2018-07-29T10:19:05.333Z,27.50
2018-07-29T10:21:33.857Z,27.60
2018-07-29T10:24:02.257Z,27.90
2018-07-29T10:26:30.909Z,27.90
2018-07-29T10:28:59.348Z,27.50
2018-07-29T10:31:28.545Z,27.10
2018-07-29T10:33:57.085Z,27.00
2018-07-29T10:36:25.481Z,27.10
2018-07-29T10:38:53.845Z,27.40
2018-07-29T10:41:22.377Z,27.80
2018-07-29T10:43:50.806Z,27.80
2018-07-29T10:46:19.202Z,27.90
2018-07-29T10:48:47.761Z,28.10
2018-07-29T10:51:16.185Z,27.90
2018-07-29T10:53:44.565Z,27.80
2018-07-29T10:56:13.161Z,27.40
2018-07-29T10:58:41.675Z,27.10
2018-07-29T11:01:10.113Z,27.10
2018-07-29T11:03:38.870Z,27.30
2018-07-29T11:06:08.294Z,27.60
2018-07-29T11:08:36.664Z,27.60
2018-07-29T11:11:05.537Z,27.70
2018-07-29T11:13:33.956Z,27.90
2018-07-29T11:16:02.342Z,27.80
2018-07-29T11:20:59.112Z,27.30
2018-07-29T11:23:27.520Z,27.20
2018-07-29T11:25:56.185Z,26.80
2018-07-29T11:28:24.565Z,26.80
2018-07-29T11:30:52.944Z,27.10
2018-07-29T11:33:21.469Z,27.30
2018-07-29T11:35:49.893Z,27.20
2018-07-29T11:38:18.338Z,27.20
2018-07-29T11:40:46.909Z,27.20
2018-07-29T11:43:15.301Z,27.00
2018-07-29T11:45:43.689Z,26.90
2018-07-29T11:50:40.402Z,26.70
2018-07-29T11:53:08.759Z,26.70
2018-07-29T11:55:37.389Z,26.70
2018-07-29T11:58:05.965Z,26.70
2018-07-29T12:00:34.389Z,26.50
2018-07-29T12:03:03.057Z,26.60
2018-07-29T12:05:31.432Z,26.80
2018-07-29T12:07:59.804Z,27.00
2018-07-29T12:10:28.469Z,27.00
2018-07-29T12:12:56.848Z,27.10
2018-07-29T12:15:25.261Z,27.00
2018-07-29T12:17:53.834Z,26.90
2018-07-29T12:20:22.368Z,26.70
2018-07-29T12:22:50.761Z,26.70
2018-07-29T12:27:47.447Z,26.80
2018-07-29T12:30:15.825Z,26.80
2018-07-29T12:32:44.412Z,26.60
2018-07-29T12:35:12.805Z,26.60
2018-07-29T12:37:41.185Z,26.70
2018-07-29T12:40:09.947Z,26.70
2018-07-29T12:42:38.441Z,26.80
2018-07-29T12:45:06.832Z,26.90
2018-07-29T12:47:35.441Z,27.00
2018-07-29T12:50:04.562Z,27.00
2018-07-29T12:52:33.009Z,27.10
2018-07-29T12:55:01.730Z,27.00
2018-07-29T12:57:30.119Z,27.10
2018-07-29T12:59:58.801Z,27.20
2018-07-29T13:04:55.513Z,27.30
2018-07-29T13:07:23.912Z,27.40
2018-07-29T13:09:52.501Z,27.50
2018-07-29T13:12:20.897Z,27.50
2018-07-29T13:14:49.273Z,27.40
2018-07-29T13:17:17.912Z,27.40
2018-07-29T13:19:46.937Z,27.40
2018-07-29T13:24:43.838Z,27.50
2018-07-29T13:29:40.366Z,27.40
2018-07-29T13:32:09.091Z,27.30
2018-07-29T13:34:37.425Z,27.40
2018-07-29T13:37:05.904Z,27.30
2018-07-29T13:39:34.521Z,27.40
2018-07-29T13:42:02.921Z,27.40
2018-07-29T13:44:31.521Z,27.40
2018-07-29T13:47:00.202Z,27.50
2018-07-29T13:49:28.686Z,27.40
2018-07-29T13:51:57.070Z,27.30
2018-07-29T13:54:25.681Z,27.40
2018-07-29T13:56:54.058Z,27.40
2018-07-29T13:59:22.489Z,27.40
2018-07-29T14:01:51.270Z,27.40
2018-07-29T14:04:19.682Z,27.40
2018-07-29T14:06:48.046Z,27.50
2018-07-29T14:09:16.770Z,27.60
2018-07-29T14:11:45.173Z,27.80
2018-07-29T14:14:13.561Z,27.90
2018-07-29T14:16:42.336Z,27.90
2018-07-29T14:19:10.778Z,28.00
2018-07-29T14:21:39.177Z,28.00
2018-07-29T14:24:08.021Z,28.00
2018-07-29T14:26:36.429Z,28.00
2018-07-29T14:29:04.842Z,27.90
2018-07-29T14:31:33.429Z,27.90
2018-07-29T14:34:02.046Z,28.00
2018-07-29T14:36:30.453Z,28.00
2018-07-29T14:38:59.036Z,28.00
2018-07-29T14:41:27.456Z,28.00
2018-07-29T14:43:55.867Z,28.00
2018-07-29T14:46:24.553Z,28.10
2018-07-29T14:48:52.973Z,28.20
2018-07-29T14:51:21.385Z,28.20
2018-07-29T14:53:50.045Z,28.30
2018-07-29T14:56:18.462Z,28.40
2018-07-29T14:58:47.178Z,28.40
2018-07-29T15:01:16.358Z,28.30
2018-07-29T15:03:46.149Z,28.50
2018-07-29T15:06:15.052Z,28.40
2018-07-29T15:08:43.852Z,28.40
2018-07-29T15:11:12.228Z,28.10
2018-07-29T15:13:40.605Z,28.00
2018-07-29T15:18:37.333Z,28.00
2018-07-29T15:21:05.771Z,27.90
2018-07-29T15:23:34.338Z,28.00
2018-07-29T15:26:02.807Z,28.00
2018-07-29T15:28:32.303Z,28.10
2018-07-29T15:31:00.878Z,28.20
2018-07-29T15:33:29.274Z,28.30
2018-07-29T15:35:57.806Z,28.30
2018-07-29T15:38:26.405Z,28.20
2018-07-29T15:40:54.848Z,28.20
2018-07-29T15:43:23.256Z,28.10
2018-07-29T15:45:51.882Z,28.20
2018-07-29T15:48:20.340Z,28.30
2018-07-29T15:50:48.760Z,28.40
2018-07-29T15:53:17.381Z,28.40
2018-07-29T15:55:45.817Z,28.30
2018-07-29T15:58:14.181Z,28.10
2018-07-29T16:00:42.845Z,28.00
2018-07-29T16:03:11.257Z,27.80
2018-07-29T16:05:39.646Z,27.80
2018-07-29T16:08:08.232Z,27.90
2018-07-29T16:10:36.598Z,28.00
2018-07-29T16:13:05.129Z,28.10
2018-07-29T16:15:33.799Z,28.20
2018-07-29T16:18:02.502Z,28.20
2018-07-29T16:20:30.903Z,28.30
2018-07-29T16:22:59.614Z,28.30
2018-07-29T16:25:28.085Z,28.30
2018-07-29T16:27:56.455Z,28.20
2018-07-29T16:30:25.082Z,28.20
2018-07-29T16:32:53.511Z,28.10
2018-07-29T16:35:21.998Z,28.20
2018-07-29T16:37:50.852Z,28.20
2018-07-29T16:40:19.240Z,28.20
2018-07-29T16:42:47.637Z,28.20
2018-07-29T16:45:16.396Z,28.30
2018-07-29T16:47:44.785Z,28.30
2018-07-29T16:50:13.189Z,28.40
2018-07-29T16:52:41.849Z,28.40
2018-07-29T16:55:11.085Z,28.40
2018-07-29T16:57:39.498Z,28.30
2018-07-29T17:00:08.335Z,28.20
2018-07-29T17:02:36.787Z,28.20
2018-07-29T17:05:05.173Z,28.10
2018-07-29T17:07:33.829Z,28.10
2018-07-29T17:10:04.009Z,28.00
2018-07-29T17:12:32.582Z,28.00
2018-07-29T17:15:01.425Z,28.00
2018-07-29T17:17:29.798Z,28.00
2018-07-29T17:19:58.194Z,28.00
2018-07-29T17:22:26.822Z,28.00
2018-07-29T17:24:55.289Z,28.00
2018-07-29T17:27:23.756Z,28.00
2018-07-29T17:29:52.431Z,27.90
2018-07-29T17:32:20.872Z,27.90
2018-07-29T17:34:49.409Z,28.00
2018-07-29T17:37:17.930Z,27.90
2018-07-29T17:39:46.387Z,27.90
2018-07-29T17:42:14.821Z,27.90
2018-07-29T17:47:11.590Z,27.70
2018-07-29T17:49:40.092Z,27.70
2018-07-29T17:52:08.741Z,27.70
2018-07-29T17:54:37.222Z,27.60
2018-07-29T17:57:05.707Z,27.60
2018-07-29T17:59:34.332Z,27.50
2018-07-29T18:02:02.881Z,27.40
2018-07-29T18:04:31.338Z,27.40
2018-07-29T18:06:59.922Z,27.30
2018-07-29T18:09:28.311Z,27.30
2018-07-29T18:11:56.712Z,27.30
2018-07-29T18:14:25.334Z,27.20
2018-07-29T18:16:53.844Z,27.10
2018-07-29T18:19:22.245Z,27.10
2018-07-29T18:21:50.830Z,27.10
2018-07-29T18:24:19.297Z,27.10
2018-07-29T18:26:47.760Z,27.00
2018-07-29T18:31:44.922Z,27.00
2018-07-29T18:34:13.326Z,27.00
2018-07-29T18:36:43.157Z,26.90
2018-07-29T18:39:11.758Z,26.90
2018-07-29T18:41:40.154Z,26.90
2018-07-29T18:44:08.925Z,26.90
2018-07-29T18:46:37.318Z,26.90
2018-07-29T18:49:05.977Z,26.90
2018-07-29T18:51:34.635Z,26.80
2018-07-29T18:54:03.025Z,26.80
2018-07-29T18:56:31.406Z,26.80
2018-07-29T18:58:59.949Z,26.70
2018-07-29T19:01:28.349Z,26.70
2018-07-29T19:03:57.562Z,26.70
2018-07-29T19:06:26.495Z,26.60
2018-07-29T19:08:54.973Z,26.60
2018-07-29T19:11:23.379Z,26.50
2018-07-29T19:13:51.988Z,26.50
2018-07-29T19:16:20.425Z,26.50
2018-07-29T19:18:48.849Z,26.50
2018-07-29T19:21:17.592Z,26.50
2018-07-29T19:23:47.193Z,26.40
2018-07-29T19:26:16.647Z,26.40
2018-07-29T19:28:45.049Z,26.40
2018-07-29T19:31:13.475Z,26.30
2018-07-29T19:33:42.090Z,26.30
2018-07-29T19:36:10.629Z,26.30
2018-07-29T19:38:40.392Z,26.20
2018-07-29T19:41:09.528Z,26.20
2018-07-29T19:43:38.093Z,26.20
2018-07-29T19:46:07.045Z,26.20
2018-07-29T19:48:35.817Z,26.20
2018-07-29T19:51:04.390Z,26.20
2018-07-29T19:53:33.500Z,26.10
2018-07-29T19:56:02.145Z,26.10
2018-07-29T19:58:30.625Z,26.10
2018-07-29T20:00:59.122Z,26.10
2018-07-29T20:03:27.730Z,26.10
2018-07-29T20:05:56.109Z,26.10
2018-07-29T20:08:24.573Z,26.10
2018-07-29T20:10:54.090Z,26.10
2018-07-29T20:13:22.549Z,26.00
2018-07-29T20:15:51.247Z,25.90
2018-07-29T20:18:19.957Z,25.80
2018-07-29T20:20:49.513Z,25.80
2018-07-29T20:23:18.010Z,25.70
2018-07-29T20:25:48.244Z,25.70
2018-07-29T20:28:16.665Z,25.70
2018-07-29T20:30:45.763Z,25.70
2018-07-29T20:33:14.425Z,25.70
2018-07-29T20:35:42.856Z,26.40
2018-07-29T20:38:11.293Z,25.70
2018-07-29T20:40:39.933Z,25.70
2018-07-29T20:43:08.306Z,25.70
2018-07-29T20:45:36.705Z,25.70
2018-07-29T20:48:05.382Z,25.60
2018-07-29T20:50:33.789Z,25.70
2018-07-29T20:53:02.177Z,25.60
2018-07-29T20:55:30.977Z,25.70
2018-07-29T20:57:59.441Z,25.60
2018-07-29T21:00:27.833Z,25.60
2018-07-29T21:02:56.394Z,25.60
2018-07-29T21:05:24.788Z,25.60
2018-07-29T21:07:53.179Z,25.60
2018-07-29T21:10:21.809Z,25.60
2018-07-29T21:12:50.202Z,25.60
2018-07-29T21:15:18.609Z,25.60
2018-07-29T21:17:47.317Z,25.60
2018-07-29T21:20:15.687Z,25.50
2018-07-29T21:22:44.086Z,25.50
2018-07-29T21:25:12.781Z,25.50
2018-07-29T21:27:41.139Z,25.50
2018-07-29T21:30:09.581Z,25.50
2018-07-29T21:32:38.265Z,25.50
2018-07-29T21:35:06.689Z,25.50
2018-07-29T21:37:35.080Z,25.50
2018-07-29T21:40:03.957Z,25.50
2018-07-29T21:42:32.322Z,25.50
2018-07-29T21:45:00.799Z,25.50
2018-07-29T21:47:29.432Z,25.50
2018-07-29T21:49:57.790Z,25.40
2018-07-29T21:52:26.185Z,25.40
2018-07-29T21:54:54.758Z,25.40
2018-07-29T21:57:23.206Z,25.40
2018-07-29T21:59:51.633Z,25.40
2018-07-29T22:02:25.429Z,25.40
2018-07-29T22:04:54.170Z,25.40
2018-07-29T22:07:22.558Z,25.40
2018-07-29T22:09:51.135Z,25.40
2018-07-29T22:12:19.546Z,25.40
2018-07-29T22:14:47.951Z,25.40
2018-07-29T22:17:16.575Z,25.40
2018-07-29T22:19:45.006Z,25.40
2018-07-29T22:22:13.390Z,25.40
2018-07-29T22:24:46.276Z,25.40
2018-07-29T22:27:14.687Z,25.40
2018-07-29T22:29:49.586Z,25.30
2018-07-29T22:32:18.037Z,25.30
2018-07-29T22:34:46.438Z,25.30
2018-07-29T22:37:15.047Z,25.30
2018-07-29T22:39:43.421Z,25.30
2018-07-29T22:42:11.810Z,25.20
2018-07-29T22:44:40.448Z,25.20
2018-07-29T22:47:08.821Z,25.20
2018-07-29T22:49:37.230Z,25.20
2018-07-29T22:52:05.925Z,25.10
2018-07-29T22:54:34.370Z,25.10
2018-07-29T22:57:02.823Z,25.00
2018-07-29T22:59:31.418Z,25.00
2018-07-29T23:01:59.883Z,25.00
2018-07-29T23:04:28.351Z,24.90
2018-07-29T23:06:56.921Z,24.90
2018-07-29T23:09:25.318Z,24.90
2018-07-29T23:14:22.068Z,24.90
2018-07-29T23:16:50.452Z,24.80
2018-07-29T23:19:19.022Z,24.80
2018-07-29T23:21:47.639Z,24.80
2018-07-29T23:24:16.089Z,24.70
2018-07-29T23:26:44.678Z,24.70
2018-07-29T23:34:21.697Z,24.70
2018-07-29T23:36:50.042Z,24.60
2018-07-29T23:39:18.482Z,24.60
2018-07-29T23:41:47.159Z,24.50
2018-07-29T23:44:15.516Z,24.50
2018-07-29T23:46:43.893Z,24.50
2018-07-29T23:49:12.605Z,24.50
2018-07-29T23:51:41.013Z,24.40
2018-07-29T23:54:09.381Z,24.40
2018-07-29T23:56:38.166Z,24.40
2018-07-29T23:59:06.638Z,24.30
